sensor_id;sensor_type;location;lat;lon;timestamp;P1;durP1;ratioP1;P2;durP2;ratioP2
16624;SDS011;8426;48.496;9.098;2022-11-27T00:01:21;37.10;;;7.33;;
16624;SDS011;8426;48.496;9.098;2022-11-27T00:06:28;30.13;;;7.27;;
16624;SDS011;8426;48.496;9.098;2022-11-27T00:11:39;13.50;;;6.27;;
16624;SDS011;8426;48.496;9.098;2022-11-27T00:21:53;10.47;;;5.10;;
16624;SDS011;8426;48.496;9.098;2022-11-27T00:27:04;111.17;;;8.60;;
16624;SDS011;8426;48.496;9.098;2022-11-27T00:32:07;188.67;;;11.97;;
16624;SDS011;8426;48.496;9.098;2022-11-27T00:37:25;176.20;;;9.43;;
16624;SDS011;8426;48.496;9.098;2022-11-27T00:42:30;10.60;;;4.73;;
16624;SDS011;8426;48.496;9.098;2022-11-27T00:47:44;9.57;;;4.00;;
16624;SDS011;8426;48.496;9.098;2022-11-27T00:52:54;24.93;;;4.37;;
16624;SDS011;8426;48.496;9.098;2022-11-27T00:58:06;79.93;;;6.20;;
16624;SDS011;8426;48.496;9.098;2022-11-27T01:03:15;254.00;;;11.70;;
16624;SDS011;8426;48.496;9.098;2022-11-27T01:08:24;56.77;;;5.67;;
16624;SDS011;8426;48.496;9.098;2022-11-27T01:13:31;255.90;;;11.60;;
16624;SDS011;8426;48.496;9.098;2022-11-27T01:18:39;35.00;;;3.87;;
16624;SDS011;8426;48.496;9.098;2022-11-27T01:23:46;60.73;;;5.03;;
16624;SDS011;8426;48.496;9.098;2022-11-27T01:28:51;5.07;;;3.07;;
16624;SDS011;8426;48.496;9.098;2022-11-27T01:34:05;127.93;;;7.30;;
16624;SDS011;8426;48.496;9.098;2022-11-27T01:39:14;121.80;;;7.30;;
16624;SDS011;8426;48.496;9.098;2022-11-27T01:55:27;278.80;;;12.10;;
16624;SDS011;8426;48.496;9.098;2022-11-27T02:00:36;136.63;;;7.67;;
16624;SDS011;8426;48.496;9.098;2022-11-27T02:11:18;8.43;;;3.60;;
16624;SDS011;8426;48.496;9.098;2022-11-27T02:16:29;29.90;;;4.40;;
16624;SDS011;8426;48.496;9.098;2022-11-27T02:21:38;130.70;;;7.57;;
16624;SDS011;8426;48.496;9.098;2022-11-27T02:27:07;153.13;;;8.20;;
16624;SDS011;8426;48.496;9.098;2022-11-27T02:32:24;236.83;;;12.10;;
16624;SDS011;8426;48.496;9.098;2022-11-27T02:37:46;19.67;;;3.73;;
16624;SDS011;8426;48.496;9.098;2022-11-27T02:42:54;57.57;;;5.60;;
16624;SDS011;8426;48.496;9.098;2022-11-27T02:48:02;50.70;;;4.53;;
16624;SDS011;8426;48.496;9.098;2022-11-27T02:53:09;60.50;;;4.50;;
16624;SDS011;8426;48.496;9.098;2022-11-27T02:58:19;210.13;;;9.20;;
16624;SDS011;8426;48.496;9.098;2022-11-27T03:03:31;31.37;;;4.83;;
16624;SDS011;8426;48.496;9.098;2022-11-27T03:08:45;29.67;;;4.00;;
16624;SDS011;8426;48.496;9.098;2022-11-27T03:13:55;142.87;;;7.50;;
16624;SDS011;8426;48.496;9.098;2022-11-27T03:19:09;87.47;;;6.80;;
16624;SDS011;8426;48.496;9.098;2022-11-27T03:24:19;144.20;;;8.13;;
16624;SDS011;8426;48.496;9.098;2022-11-27T03:29:35;78.90;;;5.47;;
16624;SDS011;8426;48.496;9.098;2022-11-27T03:34:44;6.50;;;3.23;;
16624;SDS011;8426;48.496;9.098;2022-11-27T03:39:57;88.03;;;6.00;;
16624;SDS011;8426;48.496;9.098;2022-11-27T03:45:08;309.40;;;13.30;;
16624;SDS011;8426;48.496;9.098;2022-11-27T03:56:11;5.93;;;3.10;;
16624;SDS011;8426;48.496;9.098;2022-11-27T04:01:21;91.17;;;5.50;;
16624;SDS011;8426;48.496;9.098;2022-11-27T04:06:32;60.00;;;4.57;;
16624;SDS011;8426;48.496;9.098;2022-11-27T04:11:43;123.80;;;6.47;;
16624;SDS011;8426;48.496;9.098;2022-11-27T04:16:50;60.20;;;4.90;;
16624;SDS011;8426;48.496;9.098;2022-11-27T04:22:15;52.27;;;3.90;;
16624;SDS011;8426;48.496;9.098;2022-11-27T04:27:20;47.83;;;4.40;;
16624;SDS011;8426;48.496;9.098;2022-11-27T04:32:34;187.90;;;7.37;;
16624;SDS011;8426;48.496;9.098;2022-11-27T04:37:42;147.07;;;6.83;;
16624;SDS011;8426;48.496;9.098;2022-11-27T04:42:50;15.00;;;3.23;;
16624;SDS011;8426;48.496;9.098;2022-11-27T04:47:58;35.60;;;4.13;;
16624;SDS011;8426;48.496;9.098;2022-11-27T04:53:03;51.40;;;3.27;;
16624;SDS011;8426;48.496;9.098;2022-11-27T04:58:07;51.73;;;4.60;;
16624;SDS011;8426;48.496;9.098;2022-11-27T05:03:11;132.80;;;6.90;;
16624;SDS011;8426;48.496;9.098;2022-11-27T05:08:17;220.40;;;9.27;;
16624;SDS011;8426;48.496;9.098;2022-11-27T05:13:20;83.70;;;4.93;;
16624;SDS011;8426;48.496;9.098;2022-11-27T05:18:24;121.90;;;6.23;;
16624;SDS011;8426;48.496;9.098;2022-11-27T05:23:29;4.33;;;2.73;;
16624;SDS011;8426;48.496;9.098;2022-11-27T05:28:34;120.57;;;6.80;;
16624;SDS011;8426;48.496;9.098;2022-11-27T05:33:38;112.80;;;7.07;;
16624;SDS011;8426;48.496;9.098;2022-11-27T05:38:43;44.67;;;4.67;;
16624;SDS011;8426;48.496;9.098;2022-11-27T05:43:47;124.53;;;5.87;;
16624;SDS011;8426;48.496;9.098;2022-11-27T05:48:53;64.77;;;5.27;;
16624;SDS011;8426;48.496;9.098;2022-11-27T05:54:04;53.73;;;4.63;;
16624;SDS011;8426;48.496;9.098;2022-11-27T05:59:13;15.73;;;3.67;;
16624;SDS011;8426;48.496;9.098;2022-11-27T06:04:18;4.57;;;3.17;;
16624;SDS011;8426;48.496;9.098;2022-11-27T06:09:37;59.40;;;5.13;;
16624;SDS011;8426;48.496;9.098;2022-11-27T06:14:41;26.33;;;5.03;;
16624;SDS011;8426;48.496;9.098;2022-11-27T06:19:51;32.43;;;4.53;;
16624;SDS011;8426;48.496;9.098;2022-11-27T06:24:57;27.37;;;4.83;;
16624;SDS011;8426;48.496;9.098;2022-11-27T06:30:06;14.00;;;3.27;;
16624;SDS011;8426;48.496;9.098;2022-11-27T06:35:10;31.00;;;4.03;;
16624;SDS011;8426;48.496;9.098;2022-11-27T06:40:15;55.90;;;4.57;;
16624;SDS011;8426;48.496;9.098;2022-11-27T06:45:20;19.17;;;3.63;;
16624;SDS011;8426;48.496;9.098;2022-11-27T06:50:26;10.60;;;3.47;;
16624;SDS011;8426;48.496;9.098;2022-11-27T06:55:31;20.57;;;4.27;;
16624;SDS011;8426;48.496;9.098;2022-11-27T07:00:34;10.00;;;3.87;;
16624;SDS011;8426;48.496;9.098;2022-11-27T07:05:38;7.50;;;4.10;;
16624;SDS011;8426;48.496;9.098;2022-11-27T07:10:44;7.63;;;4.37;;
16624;SDS011;8426;48.496;9.098;2022-11-27T07:15:47;7.87;;;4.30;;
16624;SDS011;8426;48.496;9.098;2022-11-27T07:20:53;5.33;;;3.30;;
16624;SDS011;8426;48.496;9.098;2022-11-27T07:26:03;7.33;;;4.03;;
16624;SDS011;8426;48.496;9.098;2022-11-27T07:31:08;7.23;;;4.33;;
16624;SDS011;8426;48.496;9.098;2022-11-27T07:36:15;10.63;;;5.60;;
16624;SDS011;8426;48.496;9.098;2022-11-27T07:41:23;10.00;;;5.33;;
16624;SDS011;8426;48.496;9.098;2022-11-27T07:46:35;9.17;;;4.63;;
16624;SDS011;8426;48.496;9.098;2022-11-27T07:51:39;19.03;;;9.20;;
16624;SDS011;8426;48.496;9.098;2022-11-27T07:56:45;13.97;;;6.87;;
16624;SDS011;8426;48.496;9.098;2022-11-27T08:01:48;14.47;;;6.90;;
16624;SDS011;8426;48.496;9.098;2022-11-27T08:07:06;16.73;;;8.17;;
16624;SDS011;8426;48.496;9.098;2022-11-27T08:12:17;8.83;;;5.07;;
16624;SDS011;8426;48.496;9.098;2022-11-27T08:17:25;8.20;;;4.70;;
16624;SDS011;8426;48.496;9.098;2022-11-27T08:22:28;6.80;;;4.07;;
16624;SDS011;8426;48.496;9.098;2022-11-27T08:27:34;8.43;;;3.70;;
16624;SDS011;8426;48.496;9.098;2022-11-27T08:32:54;10.00;;;3.80;;
16624;SDS011;8426;48.496;9.098;2022-11-27T08:37:58;7.37;;;3.50;;
16624;SDS011;8426;48.496;9.098;2022-11-27T08:43:03;5.63;;;3.57;;
16624;SDS011;8426;48.496;9.098;2022-11-27T08:48:10;7.60;;;3.77;;
16624;SDS011;8426;48.496;9.098;2022-11-27T08:53:14;16.70;;;4.83;;
16624;SDS011;8426;48.496;9.098;2022-11-27T08:58:20;33.47;;;4.33;;
16624;SDS011;8426;48.496;9.098;2022-11-27T09:03:24;6.30;;;3.90;;
16624;SDS011;8426;48.496;9.098;2022-11-27T09:08:28;5.97;;;3.17;;
16624;SDS011;8426;48.496;9.098;2022-11-27T09:13:35;3.73;;;2.93;;
16624;SDS011;8426;48.496;9.098;2022-11-27T09:18:42;4.77;;;3.07;;
16624;SDS011;8426;48.496;9.098;2022-11-27T09:23:50;7.30;;;3.13;;
16624;SDS011;8426;48.496;9.098;2022-11-27T09:28:56;4.80;;;2.93;;
16624;SDS011;8426;48.496;9.098;2022-11-27T09:34:00;4.60;;;2.70;;
16624;SDS011;8426;48.496;9.098;2022-11-27T09:39:05;3.90;;;2.73;;
16624;SDS011;8426;48.496;9.098;2022-11-27T09:44:28;4.82;;;2.40;;
16624;SDS011;8426;48.496;9.098;2022-11-27T09:49:37;5.82;;;3.38;;
16624;SDS011;8426;48.496;9.098;2022-11-27T09:54:46;4.82;;;3.17;;
16624;SDS011;8426;48.496;9.098;2022-11-27T09:59:59;7.57;;;3.23;;
16624;SDS011;8426;48.496;9.098;2022-11-27T10:05:09;6.00;;;3.00;;
16624;SDS011;8426;48.496;9.098;2022-11-27T10:10:24;6.05;;;3.05;;
16624;SDS011;8426;48.496;9.098;2022-11-27T10:15:39;5.85;;;2.83;;
16624;SDS011;8426;48.496;9.098;2022-11-27T10:20:52;7.25;;;3.40;;
16624;SDS011;8426;48.496;9.098;2022-11-27T10:25:59;5.70;;;3.40;;
16624;SDS011;8426;48.496;9.098;2022-11-27T10:31:09;6.10;;;3.50;;
16624;SDS011;8426;48.496;9.098;2022-11-27T10:36:17;6.55;;;3.65;;
16624;SDS011;8426;48.496;9.098;2022-11-27T10:41:30;5.83;;;3.40;;
16624;SDS011;8426;48.496;9.098;2022-11-27T10:46:54;6.05;;;3.72;;
16624;SDS011;8426;48.496;9.098;2022-11-27T10:52:03;7.47;;;4.30;;
16624;SDS011;8426;48.496;9.098;2022-11-27T10:57:15;6.07;;;3.47;;
16624;SDS011;8426;48.496;9.098;2022-11-27T11:02:29;6.57;;;2.80;;
16624;SDS011;8426;48.496;9.098;2022-11-27T11:07:35;4.57;;;2.50;;
16624;SDS011;8426;48.496;9.098;2022-11-27T11:12:42;7.28;;;2.78;;
16624;SDS011;8426;48.496;9.098;2022-11-27T11:17:49;6.90;;;3.42;;
16624;SDS011;8426;48.496;9.098;2022-11-27T11:23:00;4.28;;;2.63;;
16624;SDS011;8426;48.496;9.098;2022-11-27T11:28:13;5.72;;;2.90;;
16624;SDS011;8426;48.496;9.098;2022-11-27T11:33:21;5.10;;;2.60;;
16624;SDS011;8426;48.496;9.098;2022-11-27T11:38:27;2.80;;;1.95;;
16624;SDS011;8426;48.496;9.098;2022-11-27T11:43:34;6.30;;;2.30;;
16624;SDS011;8426;48.496;9.098;2022-11-27T11:48:50;4.78;;;2.72;;
16624;SDS011;8426;48.496;9.098;2022-11-27T11:54:08;3.45;;;1.80;;
16624;SDS011;8426;48.496;9.098;2022-11-27T11:59:23;3.00;;;1.70;;
16624;SDS011;8426;48.496;9.098;2022-11-27T12:04:38;5.43;;;1.60;;
16624;SDS011;8426;48.496;9.098;2022-11-27T12:09:54;2.85;;;1.63;;
16624;SDS011;8426;48.496;9.098;2022-11-27T12:15:05;2.90;;;1.80;;
16624;SDS011;8426;48.496;9.098;2022-11-27T12:20:22;3.17;;;1.40;;
16624;SDS011;8426;48.496;9.098;2022-11-27T12:25:29;3.33;;;1.45;;
16624;SDS011;8426;48.496;9.098;2022-11-27T12:30:40;2.78;;;1.38;;
16624;SDS011;8426;48.496;9.098;2022-11-27T12:35:51;3.00;;;1.60;;
16624;SDS011;8426;48.496;9.098;2022-11-27T12:41:11;5.72;;;2.20;;
16624;SDS011;8426;48.496;9.098;2022-11-27T12:46:26;3.80;;;1.70;;
16624;SDS011;8426;48.496;9.098;2022-11-27T12:51:40;5.40;;;2.60;;
16624;SDS011;8426;48.496;9.098;2022-11-27T13:02:00;3.92;;;2.58;;
16624;SDS011;8426;48.496;9.098;2022-11-27T13:07:14;4.32;;;2.72;;
16624;SDS011;8426;48.496;9.098;2022-11-27T13:12:23;4.82;;;2.63;;
16624;SDS011;8426;48.496;9.098;2022-11-27T13:17:32;4.55;;;2.60;;
16624;SDS011;8426;48.496;9.098;2022-11-27T13:22:53;6.55;;;3.00;;
16624;SDS011;8426;48.496;9.098;2022-11-27T13:27:58;8.15;;;2.80;;
16624;SDS011;8426;48.496;9.098;2022-11-27T13:33:14;4.28;;;2.83;;
16624;SDS011;8426;48.496;9.098;2022-11-27T13:38:29;4.15;;;2.50;;
16624;SDS011;8426;48.496;9.098;2022-11-27T13:43:42;3.50;;;2.22;;
16624;SDS011;8426;48.496;9.098;2022-11-27T13:48:49;3.28;;;1.80;;
16624;SDS011;8426;48.496;9.098;2022-11-27T13:54:13;3.03;;;1.88;;
16624;SDS011;8426;48.496;9.098;2022-11-27T13:59:19;3.85;;;2.60;;
16624;SDS011;8426;48.496;9.098;2022-11-27T14:04:30;8.10;;;2.80;;
16624;SDS011;8426;48.496;9.098;2022-11-27T14:09:41;7.22;;;3.47;;
16624;SDS011;8426;48.496;9.098;2022-11-27T14:20:28;8.38;;;3.72;;
16624;SDS011;8426;48.496;9.098;2022-11-27T14:25:45;5.57;;;3.70;;
16624;SDS011;8426;48.496;9.098;2022-11-27T14:30:52;8.25;;;3.78;;
16624;SDS011;8426;48.496;9.098;2022-11-27T14:36:17;6.30;;;3.47;;
16624;SDS011;8426;48.496;9.098;2022-11-27T14:41:32;8.35;;;3.70;;
16624;SDS011;8426;48.496;9.098;2022-11-27T14:46:37;7.18;;;3.58;;
16624;SDS011;8426;48.496;9.098;2022-11-27T14:51:42;7.68;;;3.30;;
16624;SDS011;8426;48.496;9.098;2022-11-27T14:56:47;7.18;;;3.53;;
16624;SDS011;8426;48.496;9.098;2022-11-27T15:01:58;16.70;;;6.78;;
16624;SDS011;8426;48.496;9.098;2022-11-27T15:07:20;10.63;;;5.00;;
16624;SDS011;8426;48.496;9.098;2022-11-27T15:12:28;6.65;;;3.15;;
16624;SDS011;8426;48.496;9.098;2022-11-27T15:17:33;7.82;;;3.15;;
16624;SDS011;8426;48.496;9.098;2022-11-27T15:22:47;6.03;;;3.00;;
16624;SDS011;8426;48.496;9.098;2022-11-27T15:27:53;4.78;;;2.60;;
16624;SDS011;8426;48.496;9.098;2022-11-27T15:33:02;5.03;;;2.78;;
16624;SDS011;8426;48.496;9.098;2022-11-27T15:38:07;7.15;;;2.78;;
16624;SDS011;8426;48.496;9.098;2022-11-27T15:43:13;4.38;;;2.88;;
16624;SDS011;8426;48.496;9.098;2022-11-27T15:48:18;4.13;;;2.60;;
16624;SDS011;8426;48.496;9.098;2022-11-27T15:53:23;4.30;;;2.58;;
16624;SDS011;8426;48.496;9.098;2022-11-27T15:58:30;3.33;;;2.25;;
16624;SDS011;8426;48.496;9.098;2022-11-27T16:03:33;5.15;;;2.70;;
16624;SDS011;8426;48.496;9.098;2022-11-27T16:08:37;5.47;;;2.80;;
16624;SDS011;8426;48.496;9.098;2022-11-27T16:13:42;5.97;;;2.72;;
16624;SDS011;8426;48.496;9.098;2022-11-27T16:18:56;5.50;;;2.55;;
16624;SDS011;8426;48.496;9.098;2022-11-27T16:24:10;4.50;;;2.55;;
16624;SDS011;8426;48.496;9.098;2022-11-27T16:29:17;7.82;;;4.43;;
16624;SDS011;8426;48.496;9.098;2022-11-27T16:34:20;9.02;;;4.78;;
16624;SDS011;8426;48.496;9.098;2022-11-27T16:39:29;10.23;;;5.47;;
16624;SDS011;8426;48.496;9.098;2022-11-27T16:44:43;9.15;;;4.63;;
16624;SDS011;8426;48.496;9.098;2022-11-27T16:49:47;6.32;;;3.65;;
16624;SDS011;8426;48.496;9.098;2022-11-27T16:54:52;10.25;;;4.60;;
16624;SDS011;8426;48.496;9.098;2022-11-27T16:59:59;8.13;;;4.25;;
16624;SDS011;8426;48.496;9.098;2022-11-27T17:05:11;6.40;;;3.85;;
16624;SDS011;8426;48.496;9.098;2022-11-27T17:10:15;7.63;;;4.22;;
16624;SDS011;8426;48.496;9.098;2022-11-27T17:15:34;15.88;;;5.97;;
16624;SDS011;8426;48.496;9.098;2022-11-27T17:20:42;49.45;;;17.05;;
16624;SDS011;8426;48.496;9.098;2022-11-27T17:25:52;85.05;;;28.45;;
16624;SDS011;8426;48.496;9.098;2022-11-27T17:30:57;82.00;;;25.70;;
16624;SDS011;8426;48.496;9.098;2022-11-27T17:36:07;58.55;;;21.38;;
16624;SDS011;8426;48.496;9.098;2022-11-27T17:41:14;24.42;;;9.80;;
16624;SDS011;8426;48.496;9.098;2022-11-27T17:46:20;21.50;;;10.00;;
16624;SDS011;8426;48.496;9.098;2022-11-27T17:51:26;14.88;;;7.68;;
16624;SDS011;8426;48.496;9.098;2022-11-27T17:56:45;11.93;;;5.75;;
16624;SDS011;8426;48.496;9.098;2022-11-27T18:01:59;9.13;;;5.13;;
16624;SDS011;8426;48.496;9.098;2022-11-27T18:07:06;7.70;;;4.38;;
16624;SDS011;8426;48.496;9.098;2022-11-27T18:12:09;7.40;;;4.37;;
16624;SDS011;8426;48.496;9.098;2022-11-27T18:17:14;8.93;;;4.43;;
16624;SDS011;8426;48.496;9.098;2022-11-27T18:22:18;6.87;;;3.90;;
16624;SDS011;8426;48.496;9.098;2022-11-27T18:27:32;7.93;;;4.50;;
16624;SDS011;8426;48.496;9.098;2022-11-27T18:32:37;8.63;;;4.27;;
16624;SDS011;8426;48.496;9.098;2022-11-27T18:37:49;8.30;;;4.73;;
16624;SDS011;8426;48.496;9.098;2022-11-27T18:42:53;9.40;;;4.60;;
16624;SDS011;8426;48.496;9.098;2022-11-27T18:48:08;9.32;;;5.22;;
16624;SDS011;8426;48.496;9.098;2022-11-27T18:53:17;12.90;;;6.93;;
16624;SDS011;8426;48.496;9.098;2022-11-27T18:58:22;15.55;;;7.65;;
16624;SDS011;8426;48.496;9.098;2022-11-27T19:08:58;16.05;;;8.18;;
16624;SDS011;8426;48.496;9.098;2022-11-27T19:14:11;16.85;;;8.18;;
16624;SDS011;8426;48.496;9.098;2022-11-27T19:19:23;11.52;;;5.97;;
16624;SDS011;8426;48.496;9.098;2022-11-27T19:24:55;15.30;;;7.10;;
16624;SDS011;8426;48.496;9.098;2022-11-27T19:30:15;11.57;;;6.13;;
16624;SDS011;8426;48.496;9.098;2022-11-27T19:35:31;12.60;;;5.17;;
16624;SDS011;8426;48.496;9.098;2022-11-27T19:40:35;11.02;;;4.95;;
16624;SDS011;8426;48.496;9.098;2022-11-27T19:45:40;9.30;;;4.70;;
16624;SDS011;8426;48.496;9.098;2022-11-27T19:50:45;12.13;;;4.83;;
16624;SDS011;8426;48.496;9.098;2022-11-27T19:55:51;7.80;;;4.55;;
16624;SDS011;8426;48.496;9.098;2022-11-27T20:01:05;16.38;;;7.22;;
16624;SDS011;8426;48.496;9.098;2022-11-27T20:06:12;13.20;;;6.88;;
16624;SDS011;8426;48.496;9.098;2022-11-27T20:11:17;7.55;;;4.88;;
16624;SDS011;8426;48.496;9.098;2022-11-27T20:16:22;8.35;;;4.72;;
16624;SDS011;8426;48.496;9.098;2022-11-27T20:21:29;11.40;;;5.33;;
16624;SDS011;8426;48.496;9.098;2022-11-27T20:26:32;9.20;;;4.73;;
16624;SDS011;8426;48.496;9.098;2022-11-27T20:31:49;9.23;;;4.35;;
16624;SDS011;8426;48.496;9.098;2022-11-27T20:36:57;5.25;;;3.38;;
16624;SDS011;8426;48.496;9.098;2022-11-27T20:42:01;10.10;;;4.77;;
16624;SDS011;8426;48.496;9.098;2022-11-27T20:47:07;9.80;;;4.97;;
16624;SDS011;8426;48.496;9.098;2022-11-27T20:52:12;7.93;;;4.30;;
16624;SDS011;8426;48.496;9.098;2022-11-27T20:57:16;7.78;;;4.00;;
16624;SDS011;8426;48.496;9.098;2022-11-27T21:02:20;11.53;;;5.27;;
16624;SDS011;8426;48.496;9.098;2022-11-27T21:07:27;6.20;;;3.93;;
16624;SDS011;8426;48.496;9.098;2022-11-27T21:12:41;7.57;;;4.47;;
16624;SDS011;8426;48.496;9.098;2022-11-27T21:17:45;7.03;;;4.38;;
16624;SDS011;8426;48.496;9.098;2022-11-27T21:22:50;7.80;;;4.35;;
16624;SDS011;8426;48.496;9.098;2022-11-27T21:27:54;7.40;;;3.85;;
16624;SDS011;8426;48.496;9.098;2022-11-27T21:33:00;7.38;;;4.50;;
16624;SDS011;8426;48.496;9.098;2022-11-27T21:38:06;9.53;;;4.73;;
16624;SDS011;8426;48.496;9.098;2022-11-27T21:43:16;8.23;;;4.50;;
16624;SDS011;8426;48.496;9.098;2022-11-27T21:48:20;6.90;;;3.73;;
16624;SDS011;8426;48.496;9.098;2022-11-27T21:53:29;8.27;;;3.87;;
16624;SDS011;8426;48.496;9.098;2022-11-27T21:58:34;7.23;;;4.20;;
16624;SDS011;8426;48.496;9.098;2022-11-27T22:03:38;6.77;;;4.23;;
16624;SDS011;8426;48.496;9.098;2022-11-27T22:08:45;6.87;;;4.43;;
16624;SDS011;8426;48.496;9.098;2022-11-27T22:13:55;7.13;;;4.20;;
16624;SDS011;8426;48.496;9.098;2022-11-27T22:19:03;7.63;;;4.40;;
16624;SDS011;8426;48.496;9.098;2022-11-27T22:24:09;10.00;;;5.40;;
16624;SDS011;8426;48.496;9.098;2022-11-27T22:29:23;16.20;;;7.07;;
16624;SDS011;8426;48.496;9.098;2022-11-27T22:34:28;18.08;;;7.45;;
16624;SDS011;8426;48.496;9.098;2022-11-27T22:39:33;12.87;;;6.53;;
16624;SDS011;8426;48.496;9.098;2022-11-27T22:44:37;13.77;;;6.83;;
16624;SDS011;8426;48.496;9.098;2022-11-27T22:49:41;15.70;;;7.03;;
16624;SDS011;8426;48.496;9.098;2022-11-27T22:54:47;15.73;;;8.10;;
16624;SDS011;8426;48.496;9.098;2022-11-27T22:59:57;12.23;;;6.53;;
16624;SDS011;8426;48.496;9.098;2022-11-27T23:05:01;10.63;;;5.70;;
16624;SDS011;8426;48.496;9.098;2022-11-27T23:10:07;15.17;;;6.57;;
16624;SDS011;8426;48.496;9.098;2022-11-27T23:15:11;10.83;;;6.20;;
16624;SDS011;8426;48.496;9.098;2022-11-27T23:20:14;11.30;;;5.75;;
16624;SDS011;8426;48.496;9.098;2022-11-27T23:25:19;11.70;;;6.33;;
16624;SDS011;8426;48.496;9.098;2022-11-27T23:30:23;13.50;;;5.70;;
16624;SDS011;8426;48.496;9.098;2022-11-27T23:35:26;11.70;;;5.47;;
16624;SDS011;8426;48.496;9.098;2022-11-27T23:40:31;8.77;;;4.88;;
16624;SDS011;8426;48.496;9.098;2022-11-27T23:45:36;12.00;;;5.17;;
16624;SDS011;8426;48.496;9.098;2022-11-27T23:50:40;10.03;;;5.63;;
16624;SDS011;8426;48.496;9.098;2022-11-27T23:55:51;10.00;;;5.63;;
